Terminal Aerodrome Forecast
Issued by NWS

Home | Current Version | Previous Version | Text Only | Print | Product List | Glossary On
Versions: 1 2 3 4 5 6 7 8 9 10 11 12 13 14
000
FTAK31 PANC 231132
TAFADQ
TAF
PADQ 231132Z 2312/2412 29008KT P6SM VCSH BKN060
      TEMPO 2312/2316 5SM -SHSN BKN030
     FM231600 28010G20KT P6SM -SHSN BKN035
     FM232200 32015G25KT P6SM VCSH BKN050
     FM240600 31025G40KT P6SM SCT050=

USA.gov is the U.S. government's official web portal to all federal, state and local government web resources and services.